Biloxi, MS

12:57 PM CDT del 30 Agosto 2015 (GMT -0500)
Espana Woods /Gulf Hills | | Change Station
CLOSE
Current Station
Stazione meteo personale
Location: Ocean Springs, MS
Altitudine: 26 ft
Stazioni meteo nelle vicinanze

Alt. 26 ft 30.44 °N, 88.83 °W | Updated 8 seconds ago

Clear
Sereno
88.0 °F
Sembra 92 °F
N
0.0
Vento Variabile Vento da NO
Gusts 1.8 mph

Oggi
Massima -- | Minima -- °F
--% Possibilità di precip.
Ieri
Massima -- | Minima -- °F
Precip. -- in
6:31 AM 7:20 PM
Luna piena, 99% visible
Pressione 30.07 in
Visibilità 10.0 miglia
Nuvole Sereno
Indice di calore 92 °F
Punto di rugiada 68 °F
Umidità 52%
Piovosità 0.00 in
Spessore del manto nevoso Non disponibile.
Raggi UV 11 fuori da 12
Polline 7.10 fuori da 12
Qualità dell'aria Non disponibile.
Flu Activity Non disponibile.
METAR KBIX 301658Z AUTO 00000KT 10SM CLR 31/18 A3006 RMK AO2 SLP182 T03120177
Pressione 30.07 in
Visibilità 10.0 miglia
Nuvole Sereno
Indice di calore 92 °F
Punto di rugiada 68 °F
Umidità 52%
Piovosità 0.00 in
Spessore del manto nevoso Non disponibile.
Raggi UV 11 fuori da 12
Polline 7.10 fuori da 12
Qualità dell'aria Non disponibile.
Flu Activity Non disponibile.
METAR KBIX 301658Z AUTO 00000KT 10SM CLR 31/18 A3006 RMK AO2 SLP182 T03120177

10-Day Weather Forecast

×

Almanac

Astronomia

Aug. 30, 2015 Alba Tramonto
Ora attuale
Crepuscolo civile
Crepuscolo nautico
Crepuscolo astronomico
Luna
Estensione della luce visibile
Lunghezza del giorno
Tomorrow will be .
, % of the Moon is Illuminated

Gli estremi di oggi

State Highs State Lows

Community

WunderPhotos

Upload Photos

1,851,014 foto caricate!

WunderBlogs® & News

Nearby

Qualità dell'aria

  Qualità dell'aria Indice AQ Inquinante
Not available.

Profondità neve

Stazione Profondità Altitudine

Attività sismica

Città  Distanza Mag. Data & Ora
Minimo Magnitudo Mostrato è 2.5.

Temperature delle acque costiere

Località Temperatura

Stations

Stazioni meteo nelle vicinanze

Ubicazione della stazione Temp. Raffreddamento del vento Punto di rugiada Umidità Vento Precip. Alt. Aggiornato Tipo